Time;durP1;ratioP1;P1;durP2;ratioP2;P2;SDS_P1;SDS_P2;PMS_P1;PMS_P2;Temp;Humidity;BMP_temperature;BMP_pressure;BME280_temperature;BME280_humidity;BME280_pressure;Samples;Min_cycle;Max_cycle;Signal;HPM_P1;HPM_P2
2023/08/24 00:01:04;;;;;;;0.10;0.10;;;;;;;18.82;55.22;100959.56;7368712;19;20021;-57
2023/08/24 00:03:29;;;;;;;0.10;0.10;;;;;;;18.79;55.11;100954.41;7366973;19;20079;-57
2023/08/24 00:05:55;;;;;;;0.00;0.00;;;;;;;18.76;55.31;100950.16;7365551;19;20010;-56
2023/08/24 00:08:20;;;;;;;0.10;0.10;;;;;;;18.73;55.52;100960.88;7361969;19;20336;-56
2023/08/24 00:10:46;;;;;;;0.10;0.10;;;;;;;18.72;55.58;100963.63;7371849;19;20027;-56
2023/08/24 00:13:12;;;;;;;0.00;0.00;;;;;;;18.67;55.67;100956.75;7369396;19;20025;-56
2023/08/24 00:15:39;;;;;;;0.00;0.00;;;;;;;18.63;55.53;100955.19;7367736;19;20346;-57
2023/08/24 00:18:05;;;;;;;0.10;0.10;;;;;;;18.56;56.25;100942.38;7366301;19;20013;-55
2023/08/24 00:20:32;;;;;;;0.00;0.00;;;;;;;18.58;56.44;100964.28;7368998;19;20021;-57
2023/08/24 00:22:58;;;;;;;0.17;0.17;;;;;;;18.54;56.38;100957.44;7366371;19;20478;-57
2023/08/24 00:25:23;;;;;;;0.03;0.03;;;;;;;18.49;56.47;100957.69;7360360;19;20090;-56
2023/08/24 00:27:49;;;;;;;0.00;0.00;;;;;;;18.49;56.59;100956.81;7366028;19;20078;-57
2023/08/24 00:30:15;;;;;;;0.00;0.00;;;;;;;18.41;56.93;100950.16;7373947;19;20007;-56
2023/08/24 00:32:40;;;;;;;0.00;0.00;;;;;;;18.40;56.77;100958.19;7367593;19;20470;-56
2023/08/24 00:35:10;;;;;;;0.00;0.00;;;;;;;18.37;56.07;100953.88;7373358;19;20039;-57
2023/08/24 00:37:35;;;;;;;0.00;0.00;;;;;;;18.23;57.07;100924.66;7372115;19;20018;-57
2023/08/24 00:40:09;;;;;;;0.10;0.10;;;;;;;18.16;57.16;100910.03;7373001;19;20966;-57
2023/08/24 00:42:43;;;;;;;0.10;0.10;;;;;;;18.29;56.81;100929.63;7371898;19;20015;-57
2023/08/24 00:45:11;;;;;;;0.10;0.10;;;;;;;18.24;57.39;100921.06;7370682;19;20142;-55
2023/08/24 00:47:39;;;;;;;0.10;0.10;;;;;;;18.22;57.52;100922.94;7369641;19;20659;-57
2023/08/24 00:50:06;;;;;;;0.00;0.00;;;;;;;18.19;57.40;100922.25;7373333;19;20486;-54
2023/08/24 00:52:33;;;;;;;0.00;0.00;;;;;;;18.16;57.26;100923.25;7374411;19;20070;-55
2023/08/24 00:55:01;;;;;;;0.10;0.10;;;;;;;18.15;57.22;100921.56;7375514;19;20014;-57
2023/08/24 00:57:28;;;;;;;0.00;0.00;;;;;;;18.10;57.77;100924.44;7377363;19;20007;-57
2023/08/24 00:59:54;;;;;;;0.00;0.00;;;;;;;18.08;58.01;100922.78;7368679;19;20124;-55
2023/08/24 01:02:20;;;;;;;0.10;0.10;;;;;;;17.88;57.74;100902.63;7374945;19;20010;-57
2023/08/24 01:04:47;;;;;;;0.10;0.10;;;;;;;17.93;57.92;100905.06;7372075;19;20500;-57
2023/08/24 01:07:13;;;;;;;0.00;0.00;;;;;;;18.02;57.87;100931.03;7372802;19;20010;-57
2023/08/24 01:09:39;;;;;;;0.00;0.00;;;;;;;17.98;58.11;100929.47;7370387;19;20007;-54
2023/08/24 01:12:45;;;;;;;0.10;0.10;;;;;;;17.98;57.29;100924.19;7374322;19;20649;-57
2023/08/24 01:15:34;;;;;;;0.08;0.08;;;;;;;17.93;57.00;100913.84;7367241;19;20045;-56
2023/08/24 01:18:10;;;;;;;0.00;0.00;;;;;;;17.93;58.07;100912.97;7373190;19;20599;-57
2023/08/24 01:20:38;;;;;;;0.05;0.05;;;;;;;17.88;58.38;100919.34;7371351;19;20015;-57
2023/08/24 01:23:09;;;;;;;0.00;0.00;;;;;;;17.86;59.06;100937.06;7371520;19;20006;-57
2023/08/24 01:25:34;;;;;;;0.03;0.03;;;;;;;17.84;58.93;100944.22;7370383;19;20017;-57
2023/08/24 01:28:01;;;;;;;0.00;0.00;;;;;;;17.82;59.02;100932.84;7370742;19;20010;-57
2023/08/24 01:30:28;;;;;;;0.00;0.00;;;;;;;17.80;58.96;100928.59;7370791;19;20017;-57
2023/08/24 01:32:53;;;;;;;0.00;0.00;;;;;;;17.79;58.93;100946.25;7371051;19;20017;-57
2023/08/24 01:35:19;;;;;;;0.00;0.00;;;;;;;17.78;59.19;100935.72;7373192;19;20014;-56
2023/08/24 01:37:45;;;;;;;0.00;0.00;;;;;;;17.77;59.07;100934.03;7371398;19;20330;-57
2023/08/24 01:40:20;;;;;;;0.10;0.10;;;;;;;17.72;59.16;100923.66;7370826;19;20010;-57
2023/08/24 01:42:51;;;;;;;0.00;0.00;;;;;;;17.74;58.35;100932.41;7372112;19;20010;-56
2023/08/24 01:45:18;;;;;;;0.05;0.05;;;;;;;17.69;59.29;100931.75;7376718;19;20018;-56
2023/08/24 01:47:47;;;;;;;0.10;0.10;;;;;;;17.60;59.50;100913.69;7373779;19;20026;-57
2023/08/24 01:50:13;;;;;;;0.10;0.10;;;;;;;17.68;59.60;100927.34;7370488;19;20018;-57
2023/08/24 01:52:39;;;;;;;0.00;0.00;;;;;;;17.68;59.60;100930.00;7369020;19;20010;-57
2023/08/24 01:55:05;;;;;;;0.10;0.10;;;;;;;17.67;59.88;100920.38;7369969;19;20010;-57
2023/08/24 01:57:31;;;;;;;0.00;0.00;;;;;;;17.67;59.54;100912.44;7376722;19;20450;-57
2023/08/24 01:59:56;;;;;;;0.10;0.10;;;;;;;17.66;59.57;100921.31;7366158;19;20052;-57
2023/08/24 02:02:22;;;;;;;0.00;0.00;;;;;;;17.62;59.51;100911.81;7371004;19;20060;-56
2023/08/24 02:04:47;;;;;;;0.10;0.10;;;;;;;17.63;59.57;100910.88;7369528;19;20030;-57
2023/08/24 02:07:13;;;;;;;0.00;0.00;;;;;;;17.60;60.03;100911.91;7371447;19;20010;-57
2023/08/24 02:09:39;;;;;;;0.10;0.10;;;;;;;17.62;59.98;100911.81;7367534;19;20025;-58
2023/08/24 02:12:04;;;;;;;0.03;0.03;;;;;;;17.61;60.03;100916.25;7370088;19;20498;-58
2023/08/24 02:14:30;;;;;;;0.10;0.10;;;;;;;17.61;60.16;100912.75;7368654;19;20018;-55
2023/08/24 02:16:55;;;;;;;0.10;0.10;;;;;;;17.60;59.80;100903.13;7373653;19;20002;-57
2023/08/24 02:19:20;;;;;;;0.00;0.00;;;;;;;17.61;60.11;100910.09;7371779;19;20006;-56
2023/08/24 02:21:46;;;;;;;0.10;0.10;;;;;;;17.60;59.96;100913.69;7367127;19;20635;-56
2023/08/24 02:24:11;;;;;;;0.10;0.10;;;;;;;17.59;60.25;100906.69;7369085;19;20018;-54
2023/08/24 02:26:36;;;;;;;0.10;0.10;;;;;;;17.58;60.13;100904.97;7372643;19;20430;-56
2023/08/24 02:29:02;;;;;;;0.00;0.00;;;;;;;17.57;60.03;100908.53;7367538;19;20091;-57
2023/08/24 02:31:28;;;;;;;0.00;0.00;;;;;;;17.56;60.20;100907.69;7368575;19;20020;-58
2023/08/24 02:33:53;;;;;;;0.10;0.10;;;;;;;17.54;60.11;100901.63;7367701;19;20370;-57
2023/08/24 02:36:19;;;;;;;0.00;0.00;;;;;;;17.50;60.68;100908.00;7370404;19;20010;-57
2023/08/24 02:38:44;;;;;;;0.00;0.00;;;;;;;17.51;60.75;100906.19;7364215;19;20013;-56
2023/08/24 02:41:10;;;;;;;0.00;0.00;;;;;;;17.50;60.56;100901.88;7369670;19;20014;-57
2023/08/24 02:43:36;;;;;;;0.08;0.08;;;;;;;17.47;60.69;100908.13;7368047;19;20011;-57
2023/08/24 02:46:07;;;;;;;0.00;0.00;;;;;;;17.47;60.09;100904.63;7371070;19;20015;-57
2023/08/24 02:48:34;;;;;;;0.00;0.00;;;;;;;17.43;60.58;100900.44;7361899;19;20022;-56
2023/08/24 02:51:00;;;;;;;0.00;0.00;;;;;;;17.41;61.01;100908.44;7362909;19;20007;-57
2023/08/24 02:53:26;;;;;;;0.00;0.00;;;;;;;17.38;60.88;100896.22;7367773;19;20477;-57
2023/08/24 02:55:53;;;;;;;0.05;0.05;;;;;;;17.37;61.18;100902.44;7371497;19;20018;-57
2023/08/24 02:58:18;;;;;;;0.00;0.00;;;;;;;17.36;60.98;100902.50;7366903;19;20517;-57
2023/08/24 03:00:44;;;;;;;0.10;0.10;;;;;;;17.34;61.08;100904.38;7367992;19;20038;-57
2023/08/24 03:03:09;;;;;;;0.10;0.10;;;;;;;17.32;61.27;100904.44;7372229;19;20007;-57
2023/08/24 03:05:35;;;;;;;0.00;0.00;;;;;;;17.30;61.13;100911.59;7369964;19;20049;-56
2023/08/24 03:08:00;;;;;;;0.10;0.10;;;;;;;17.29;61.63;100914.31;7367288;19;20377;-57
2023/08/24 03:10:26;;;;;;;0.00;0.00;;;;;;;17.27;61.11;100917.00;7370462;19;20010;-56
2023/08/24 03:12:51;;;;;;;0.00;0.00;;;;;;;17.26;61.68;100904.72;7371515;19;20007;-56
2023/08/24 03:15:16;;;;;;;0.10;0.10;;;;;;;17.23;61.45;100910.13;7367178;19;20038;-56
2023/08/24 03:17:42;;;;;;;0.10;0.10;;;;;;;17.22;61.68;100913.72;7371365;19;20013;-57
2023/08/24 03:20:08;;;;;;;0.00;0.00;;;;;;;17.08;61.63;100887.09;7348231;19;20018;-57
2023/08/24 03:22:34;;;;;;;0.08;0.08;;;;;;;17.20;61.60;100910.31;7366397;19;20039;-57
2023/08/24 03:25:00;;;;;;;0.00;0.00;;;;;;;17.18;61.70;100906.88;7379928;19;20035;-57
2023/08/24 03:27:25;;;;;;;0.00;0.00;;;;;;;17.15;61.79;100901.75;7379171;19;20003;-56
2023/08/24 03:29:53;;;;;;;0.10;0.10;;;;;;;17.14;61.29;100905.31;7373722;19;20040;-57
2023/08/24 03:32:18;;;;;;;0.10;0.10;;;;;;;17.11;62.07;100900.16;7366989;19;20778;-53
2023/08/24 03:34:44;;;;;;;0.10;0.10;;;;;;;17.09;61.77;100891.47;7368074;19;20011;-57
2023/08/24 03:37:09;;;;;;;0.00;0.00;;;;;;;17.05;61.79;100890.75;7378165;19;20002;-57
2023/08/24 03:39:38;;;;;;;0.10;0.10;;;;;;;17.04;61.98;100888.19;7368971;19;20462;-55
2023/08/24 03:42:03;;;;;;;0.03;0.03;;;;;;;16.91;62.10;100877.34;7373626;19;20037;-57
2023/08/24 03:44:29;;;;;;;0.10;0.10;;;;;;;16.98;61.75;100901.66;7379339;19;20489;-57
2023/08/24 03:46:55;;;;;;;0.00;0.00;;;;;;;16.95;61.94;100904.44;7364932;19;20014;-56
2023/08/24 03:49:20;;;;;;;0.00;0.00;;;;;;;16.92;62.17;100899.31;7365981;19;20006;-56
2023/08/24 03:51:45;;;;;;;0.05;0.05;;;;;;;16.88;62.29;100903.00;7366545;19;20148;-57
2023/08/24 03:54:11;;;;;;;0.00;0.00;;;;;;;16.83;62.06;100901.47;7370677;19;20043;-56
2023/08/24 03:56:36;;;;;;;0.00;0.00;;;;;;;16.79;62.40;100894.59;7369126;19;20010;-55
2023/08/24 03:59:02;;;;;;;0.00;0.00;;;;;;;16.75;62.30;100903.56;7369313;19;20776;-57
2023/08/24 04:01:27;;;;;;;0.00;0.00;;;;;;;16.72;62.14;100897.56;7368811;19;20407;-57
2023/08/24 04:03:53;;;;;;;0.00;0.00;;;;;;;16.65;61.80;100890.84;7370853;19;20015;-57
2023/08/24 04:06:21;;;;;;;0.00;0.00;;;;;;;16.60;62.13;100891.03;7371299;19;20042;-56
2023/08/24 04:08:46;;;;;;;0.00;0.00;;;;;;;16.59;62.20;100897.25;7366577;19;20031;-57
2023/08/24 04:11:12;;;;;;;0.03;0.03;;;;;;;16.51;62.43;100889.66;7370176;19;20006;-57
2023/08/24 04:13:37;;;;;;;0.10;0.10;;;;;;;16.50;62.03;100893.22;7367930;19;20054;-57
2023/08/24 04:16:03;;;;;;;0.10;0.10;;;;;;;16.46;62.12;100890.78;7375758;19;20034;-56
2023/08/24 04:18:29;;;;;;;0.00;0.00;;;;;;;16.39;62.55;100877.03;7365410;19;20022;-57
2023/08/24 04:20:55;;;;;;;0.00;0.00;;;;;;;16.38;62.71;100887.66;7371444;19;20486;-57
2023/08/24 04:23:25;;;;;;;0.03;0.03;;;;;;;16.36;62.31;100895.59;7363686;19;20470;-57
2023/08/24 04:25:51;;;;;;;0.00;0.00;;;;;;;16.29;62.83;100895.03;7367913;19;20133;-57
2023/08/24 04:28:16;;;;;;;0.00;0.00;;;;;;;16.25;62.37;100892.59;7365446;19;20085;-57
2023/08/24 04:30:57;;;;;;;0.08;0.08;;;;;;;16.22;62.03;100890.97;7367603;19;20014;-55
2023/08/24 04:33:23;;;;;;;0.10;0.10;;;;;;;16.14;62.81;100895.69;7373042;19;20125;-55
2023/08/24 04:35:49;;;;;;;0.00;0.00;;;;;;;16.11;62.74;100903.72;7367828;19;20061;-57
2023/08/24 04:38:19;;;;;;;0.00;0.00;;;;;;;16.06;62.44;100897.78;7371637;19;20081;-57
2023/08/24 04:40:55;;;;;;;0.00;0.00;;;;;;;16.03;61.48;100895.28;7367734;19;20052;-56
2023/08/24 04:43:24;;;;;;;0.10;0.10;;;;;;;15.97;62.68;100892.91;7369448;19;20483;-56
2023/08/24 04:45:53;;;;;;;0.10;0.10;;;;;;;15.92;62.69;100901.00;7345424;19;20017;-56
2023/08/24 04:48:23;;;;;;;0.00;0.00;;;;;;;15.89;62.66;100900.28;7368399;19;20014;-57
2023/08/24 04:50:49;;;;;;;0.05;0.05;;;;;;;15.82;62.42;100899.69;7366012;19;20006;-56
2023/08/24 04:53:17;;;;;;;0.08;0.08;;;;;;;15.78;62.97;100909.47;7368405;19;20030;-55
2023/08/24 04:55:42;;;;;;;0.00;0.00;;;;;;;15.67;62.93;100893.25;7370258;19;20018;-57
2023/08/24 04:58:08;;;;;;;0.00;0.00;;;;;;;15.68;63.15;100902.88;7366756;19;20488;-56
2023/08/24 05:00:35;;;;;;;0.10;0.10;;;;;;;15.65;63.35;100905.63;7370109;19;20030;-57
2023/08/24 05:03:04;;;;;;;0.10;0.10;;;;;;;15.61;63.43;100911.88;7363414;19;20010;-57
2023/08/24 05:05:31;;;;;;;0.10;0.10;;;;;;;15.58;63.46;100901.50;7369196;19;20086;-55
2023/08/24 05:07:57;;;;;;;0.00;0.00;;;;;;;15.54;62.99;100899.91;7363814;19;20010;-57
2023/08/24 05:10:22;;;;;;;0.00;0.00;;;;;;;15.47;63.71;100896.66;7369332;19;20477;-57
2023/08/24 05:12:47;;;;;;;0.00;0.00;;;;;;;15.47;63.58;100903.72;7366360;19;21524;-57
2023/08/24 05:15:13;;;;;;;0.00;0.00;;;;;;;15.44;63.48;100903.81;7374819;19;20114;-57
2023/08/24 05:17:39;;;;;;;0.00;0.00;;;;;;;15.39;63.34;100890.84;7372287;19;20023;-56
2023/08/24 05:20:06;;;;;;;0.00;0.00;;;;;;;15.37;63.39;100903.22;7371802;19;20037;-57
2023/08/24 05:22:31;;;;;;;0.05;0.05;;;;;;;15.26;63.44;100889.63;7375504;19;20757;-57
2023/08/24 05:24:56;;;;;;;0.00;0.00;;;;;;;15.30;63.58;100907.81;7372669;19;20117;-56
2023/08/24 05:27:22;;;;;;;0.00;0.00;;;;;;;15.28;63.70;100909.69;7371922;19;20057;-57
2023/08/24 05:29:47;;;;;;;0.00;0.00;;;;;;;15.24;63.78;100908.06;7374952;19;20006;-57
2023/08/24 05:32:13;;;;;;;0.10;0.10;;;;;;;15.21;63.81;100908.22;7375192;19;20031;-55
2023/08/24 05:34:38;;;;;;;0.00;0.00;;;;;;;15.19;63.86;100904.75;7372392;19;20003;-57
2023/08/24 05:37:04;;;;;;;0.00;0.00;;;;;;;15.16;63.81;100907.53;7375725;19;20521;-57
2023/08/24 05:39:29;;;;;;;0.00;0.00;;;;;;;15.12;63.96;100908.56;7371023;19;20038;-57
2023/08/24 05:41:54;;;;;;;0.00;0.00;;;;;;;15.11;63.95;100906.00;7377670;19;20701;-57
2023/08/24 05:44:21;;;;;;;0.00;0.00;;;;;;;15.10;64.16;100905.09;7383921;19;20109;-57
2023/08/24 05:46:47;;;;;;;0.00;0.00;;;;;;;15.07;64.25;100900.00;7380406;19;20018;-57
2023/08/24 05:49:13;;;;;;;0.00;0.00;;;;;;;15.05;64.04;100913.19;7378985;19;20480;-57
2023/08/24 05:51:38;;;;;;;0.00;0.00;;;;;;;15.02;64.21;100901.94;7368683;19;20799;-56
2023/08/24 05:54:04;;;;;;;0.00;0.00;;;;;;;15.01;63.54;100900.22;7370784;19;20054;-57
2023/08/24 05:56:30;;;;;;;0.05;0.05;;;;;;;14.98;63.83;100900.31;7370789;19;20011;-57
2023/08/24 05:58:57;;;;;;;0.10;0.10;;;;;;;14.97;63.88;100903.88;7368433;19;20325;-56
2023/08/24 06:01:23;;;;;;;;;;;;;;;14.96;62.00;100903.03;7371957;19;20010;-57
2023/08/24 06:03:49;;;;;;;0.00;0.00;;;;;;;14.91;63.85;100904.13;7372283;19;19982;-57
2023/08/24 06:06:14;;;;;;;0.03;0.03;;;;;;;14.92;63.86;100911.09;7370456;19;20519;-57
2023/08/24 06:08:40;;;;;;;0.00;0.00;;;;;;;14.91;63.40;100909.38;7370415;19;20019;-55
2023/08/24 06:11:05;;;;;;;0.08;0.08;;;;;;;14.88;64.33;100912.09;7372885;19;20030;-57
2023/08/24 06:13:31;;;;;;;0.00;0.00;;;;;;;14.87;64.30;100913.03;7367453;19;20015;-57
2023/08/24 06:15:56;;;;;;;0.00;0.00;;;;;;;14.87;64.06;100920.91;7378127;19;20015;-56
2023/08/24 06:18:21;;;;;;;0.00;0.00;;;;;;;14.85;64.49;100920.97;7372632;19;20003;-57
2023/08/24 06:20:48;;;;;;;0.00;0.00;;;;;;;14.84;64.20;100913.97;7368992;19;20010;-55
2023/08/24 06:23:17;;;;;;;0.00;0.00;;;;;;;14.81;64.55;100905.38;7345097;19;20016;-57
2023/08/24 06:25:43;;;;;;;0.00;0.00;;;;;;;14.83;64.37;100912.28;7366715;19;20011;-57
2023/08/24 06:28:10;;;;;;;0.10;0.10;;;;;;;14.83;64.52;100917.53;7371201;19;20784;-56
2023/08/24 06:30:39;;;;;;;0.00;0.00;;;;;;;14.79;64.38;100916.78;7371677;19;20018;-56
2023/08/24 06:33:05;;;;;;;0.08;0.08;;;;;;;14.82;64.56;100909.72;7374382;19;20026;-56
2023/08/24 06:35:31;;;;;;;0.00;0.00;;;;;;;14.81;64.60;100908.00;7371477;19;20010;-55
2023/08/24 06:37:57;;;;;;;0.00;0.00;;;;;;;14.78;64.56;100904.56;7371276;19;20010;-57
2023/08/24 06:40:22;;;;;;;0.00;0.00;;;;;;;14.81;64.92;100921.16;7370604;19;20058;-57
2023/08/24 06:42:47;;;;;;;0.10;0.10;;;;;;;14.79;65.10;100908.88;7368085;19;20014;-55
2023/08/24 06:45:13;;;;;;;0.00;0.00;;;;;;;14.79;65.12;100910.66;7368148;19;20010;-57
2023/08/24 06:47:39;;;;;;;0.00;0.00;;;;;;;14.81;64.80;100918.50;7369135;19;20018;-56
2023/08/24 06:50:06;;;;;;;0.05;0.05;;;;;;;14.83;64.46;100916.69;7369380;19;20477;-56
2023/08/24 06:52:32;;;;;;;0.03;0.03;;;;;;;14.82;65.12;100909.72;7367321;19;20025;-56
2023/08/24 06:54:57;;;;;;;0.00;0.00;;;;;;;14.84;65.34;100911.34;7365811;19;20011;-57
2023/08/24 06:57:23;;;;;;;0.00;0.00;;;;;;;14.85;64.87;100912.22;7371454;19;20019;-57
2023/08/24 06:59:50;;;;;;;0.10;0.10;;;;;;;14.88;65.27;100918.22;7367311;19;20598;-57
2023/08/24 07:02:17;;;;;;;0.05;0.05;;;;;;;14.90;65.33;100902.38;7371773;19;20026;-55
2023/08/24 07:04:43;;;;;;;0.05;0.05;;;;;;;14.91;64.93;100904.97;7369837;19;20025;-57
2023/08/24 07:07:08;;;;;;;0.00;0.00;;;;;;;14.94;65.45;100907.47;7371914;19;20056;-57
2023/08/24 07:09:35;;;;;;;0.10;0.10;;;;;;;14.85;65.51;100889.44;7368931;19;20006;-57
2023/08/24 07:12:01;;;;;;;0.08;0.08;;;;;;;15.00;65.04;100903.75;7370918;19;20014;-57
2023/08/24 07:14:27;;;;;;;0.00;0.00;;;;;;;15.02;65.10;100907.19;7367442;19;20086;-57
2023/08/24 07:16:52;;;;;;;0.08;0.08;;;;;;;15.07;65.17;100910.50;7369204;19;20122;-57
2023/08/24 07:19:17;;;;;;;0.10;0.10;;;;;;;15.09;65.45;100906.03;7367167;19;20431;-56
2023/08/24 07:21:43;;;;;;;0.00;0.00;;;;;;;15.11;65.05;100906.84;7369991;19;20011;-56
2023/08/24 07:24:08;;;;;;;0.00;0.00;;;;;;;15.13;64.80;100897.13;7366661;19;20034;-57
2023/08/24 07:26:34;;;;;;;0.10;0.10;;;;;;;15.17;65.01;100901.34;7368208;19;20019;-57
2023/08/24 07:28:59;;;;;;;0.00;0.00;;;;;;;15.20;64.67;100895.09;7363382;19;20013;-57
2023/08/24 07:31:25;;;;;;;0.00;0.00;;;;;;;15.22;64.71;100888.88;7367976;19;20089;-57
2023/08/24 07:33:50;;;;;;;0.00;0.00;;;;;;;15.24;64.77;100892.28;7365076;19;20006;-57
2023/08/24 07:36:16;;;;;;;0.00;0.00;;;;;;;15.23;64.92;100890.59;7369868;19;20014;-57
2023/08/24 07:38:42;;;;;;;0.08;0.08;;;;;;;15.34;64.64;100894.56;7364979;19;20017;-57
2023/08/24 07:41:09;;;;;;;0.00;0.00;;;;;;;15.38;64.64;100894.38;7373224;19;20573;-57
2023/08/24 07:43:34;;;;;;;0.10;0.10;;;;;;;15.30;64.60;100881.53;7369323;19;20714;-57
2023/08/24 07:46:00;;;;;;;0.00;0.00;;;;;;;15.46;64.50;100896.69;7368843;19;20006;-57
2023/08/24 07:48:25;;;;;;;0.10;0.10;;;;;;;15.50;64.91;100898.31;7366293;19;20377;-57
2023/08/24 07:50:51;;;;;;;0.03;0.03;;;;;;;15.54;64.65;100892.00;7369063;19;20505;-57
2023/08/24 07:53:16;;;;;;;0.10;0.10;;;;;;;15.52;64.66;100875.44;7362175;19;20837;-57
2023/08/24 07:55:43;;;;;;;0.00;0.00;;;;;;;15.58;64.48;100875.16;7368975;19;20334;-56
2023/08/24 07:58:08;;;;;;;0.00;0.00;;;;;;;15.65;64.57;100875.81;7366051;19;20022;-56
2023/08/24 08:00:34;;;;;;;0.10;0.10;;;;;;;15.71;64.30;100888.69;7369050;19;20482;-57
2023/08/24 08:03:00;;;;;;;0.03;0.03;;;;;;;15.75;64.16;100877.13;7365877;19;20013;-55
2023/08/24 08:05:26;;;;;;;0.03;0.03;;;;;;;15.77;64.25;100873.53;7366169;19;20086;-56
2023/08/24 08:07:52;;;;;;;0.00;0.00;;;;;;;15.76;64.04;100861.28;7367775;19;20776;-58
2023/08/24 08:10:20;;;;;;;0.10;0.10;;;;;;;15.88;64.20;100869.59;7368181;19;19998;-57
2023/08/24 08:12:45;;;;;;;0.00;0.00;;;;;;;15.93;64.22;100870.25;7366715;19;20330;-57
2023/08/24 08:15:11;;;;;;;0.00;0.00;;;;;;;15.97;64.23;100877.13;7360807;19;20017;-58
2023/08/24 08:17:37;;;;;;;0.10;0.10;;;;;;;15.90;64.08;100852.78;7362041;19;20021;-58
2023/08/24 08:20:02;;;;;;;0.10;0.10;;;;;;;16.04;63.51;100862.75;7370602;19;20021;-57
2023/08/24 08:22:28;;;;;;;0.10;0.10;;;;;;;16.08;63.92;100859.06;7370896;19;20370;-56
2023/08/24 08:24:55;;;;;;;0.10;0.10;;;;;;;16.13;63.72;100854.47;7368461;19;20022;-57
2023/08/24 08:27:21;;;;;;;0.00;0.00;;;;;;;16.18;63.57;100855.13;7366667;19;20014;-55
2023/08/24 08:29:46;;;;;;;0.00;0.00;;;;;;;16.21;63.38;100854.97;7366106;19;20055;-57
2023/08/24 08:32:12;;;;;;;0.05;0.05;;;;;;;16.28;63.47;100856.44;7368515;19;20037;-56
2023/08/24 08:34:38;;;;;;;0.10;0.10;;;;;;;16.32;62.92;100850.09;7368606;19;20492;-54
2023/08/24 08:37:03;;;;;;;0.03;0.03;;;;;;;16.40;62.95;100859.44;7367307;19;20007;-56
2023/08/24 08:39:29;;;;;;;0.00;0.00;;;;;;;16.48;62.66;100859.97;7367932;19;20492;-57
2023/08/24 08:41:55;;;;;;;0.10;0.10;;;;;;;16.51;62.61;100860.66;7360380;19;20010;-57
2023/08/24 08:44:22;;;;;;;0.10;0.10;;;;;;;16.56;62.41;100849.91;7366248;19;20330;-56
2023/08/24 08:46:49;;;;;;;0.00;0.00;;;;;;;16.66;62.10;100860.91;7367843;19;20015;-57
2023/08/24 08:49:16;;;;;;;0.10;0.10;;;;;;;16.73;62.27;100857.13;7377047;19;20014;-56
2023/08/24 08:51:42;;;;;;;0.10;0.10;;;;;;;16.82;61.96;100859.31;7370391;19;20014;-57
2023/08/24 08:54:07;;;;;;;0.00;0.00;;;;;;;16.96;62.05;100854.25;7374208;19;20099;-56
2023/08/24 08:56:33;;;;;;;0.10;0.10;;;;;;;17.14;61.61;100863.09;7375025;19;20089;-56
2023/08/24 08:59:00;;;;;;;0.00;0.00;;;;;;;17.35;60.97;100859.44;7372270;19;20410;-57
2023/08/24 09:01:27;;;;;;;0.10;0.10;;;;;;;17.58;60.33;100862.72;7372698;19;20017;-57
2023/08/24 09:03:53;;;;;;;0.10;0.10;;;;;;;17.82;60.14;100861.53;7371547;19;20478;-57
2023/08/24 09:06:19;;;;;;;0.00;0.00;;;;;;;18.07;59.69;100852.38;7373797;19;20002;-57
2023/08/24 09:08:45;;;;;;;0.00;0.00;;;;;;;18.19;59.79;100833.22;7373003;19;20007;-57
2023/08/24 09:11:11;;;;;;;0.08;0.08;;;;;;;18.54;58.64;100852.50;7363585;19;20010;-56
2023/08/24 09:13:36;;;;;;;0.00;0.00;;;;;;;18.78;58.74;100853.03;7367238;19;20022;-55
2023/08/24 09:16:06;;;;;;;0.00;0.00;;;;;;;19.06;58.61;100840.91;7367829;19;20007;-57
2023/08/24 09:18:39;;;;;;;0.00;0.00;;;;;;;19.36;58.51;100852.44;7368363;19;20039;-57
2023/08/24 09:21:12;;;;;;;0.10;0.10;;;;;;;19.63;57.48;100852.69;7370915;19;20385;-57
2023/08/24 09:23:42;;;;;;;0.10;0.10;;;;;;;19.81;56.11;100845.44;7368539;19;20049;-56
2023/08/24 09:26:08;;;;;;;0.10;0.10;;;;;;;20.02;56.09;100839.81;7365213;19;20042;-58
2023/08/24 09:28:35;;;;;;;0.10;0.10;;;;;;;20.32;55.64;100853.84;7370294;19;20007;-55
2023/08/24 09:31:01;;;;;;;0.10;0.10;;;;;;;20.57;54.49;100844.44;7372586;19;20021;-58
2023/08/24 09:33:27;;;;;;;0.10;0.10;;;;;;;20.84;53.75;100845.38;7373839;19;20367;-57
2023/08/24 09:35:55;;;;;;;0.10;0.10;;;;;;;21.10;53.42;100842.88;7376552;19;20523;-57
2023/08/24 09:38:23;;;;;;;0.10;0.10;;;;;;;21.36;52.93;100823.44;7379446;19;20049;-57
2023/08/24 09:40:53;;;;;;;0.10;0.10;;;;;;;21.65;53.38;100833.97;7378268;19;20398;-57
2023/08/24 09:43:18;;;;;;;0.08;0.08;;;;;;;21.81;51.94;100829.31;7375640;19;20529;-56
2023/08/24 09:45:54;;;;;;;0.10;0.10;;;;;;;22.11;52.47;100831.72;7371920;19;20007;-58
2023/08/24 09:48:21;;;;;;;0.10;0.10;;;;;;;22.32;50.42;100834.69;7368928;19;20011;-55
2023/08/24 09:50:48;;;;;;;0.10;0.10;;;;;;;22.58;50.68;100837.34;7373739;19;20015;-56
2023/08/24 09:53:24;;;;;;;0.10;0.10;;;;;;;22.98;51.96;100833.56;7373504;19;19999;-57
2023/08/24 09:55:55;;;;;;;0.10;0.10;;;;;;;23.23;50.09;100834.44;7374620;19;20029;-57
2023/08/24 09:58:22;;;;;;;0.00;0.00;;;;;;;23.41;48.69;100819.72;7366538;19;20017;-58
2023/08/24 10:00:49;;;;;;;0.10;0.10;;;;;;;23.51;48.56;100803.91;7369730;19;20372;-57
2023/08/24 10:03:25;;;;;;;0.10;0.10;;;;;;;24.08;50.48;100825.31;7366690;19;20090;-57
2023/08/24 10:05:53;;;;;;;0.10;0.10;;;;;;;24.31;46.38;100828.00;7379141;19;20975;-56
2023/08/24 10:08:27;;;;;;;0.10;0.10;;;;;;;24.65;48.71;100828.06;7368737;19;20019;-58
2023/08/24 10:10:56;;;;;;;0.10;0.10;;;;;;;24.72;45.60;100818.56;7350941;19;20010;-57
2023/08/24 10:13:39;;;;;;;0.05;0.05;;;;;;;25.15;49.04;100821.34;7362221;19;20762;-58
2023/08/24 10:16:05;;;;;;;0.10;0.10;;;;;;;25.26;44.07;100828.47;7371034;19;20464;-58
2023/08/24 10:18:31;;;;;;;0.10;0.10;;;;;;;25.46;43.81;100825.00;7369520;19;20044;-57
2023/08/24 10:20:57;;;;;;;0.10;0.10;;;;;;;25.73;43.31;100821.81;7373509;19;20026;-57
2023/08/24 10:23:24;;;;;;;0.00;0.00;;;;;;;25.97;42.56;100813.56;7372260;19;20002;-57
2023/08/24 10:25:52;;;;;;;0.10;0.10;;;;;;;26.29;41.55;100817.97;7372399;19;20018;-58
2023/08/24 10:28:18;;;;;;;0.05;0.05;;;;;;;26.44;41.51;100816.66;7371665;19;20010;-58
2023/08/24 10:30:45;;;;;;;0.10;0.10;;;;;;;26.64;41.42;100805.03;7373063;19;20555;-57
2023/08/24 10:33:13;;;;;;;0.03;0.03;;;;;;;26.89;40.83;100821.59;7371609;19;20037;-58
2023/08/24 10:35:39;;;;;;;0.00;0.00;;;;;;;27.07;39.91;100828.03;7363671;19;20029;-58
2023/08/24 10:38:05;;;;;;;0.10;0.10;;;;;;;27.18;40.31;100823.53;7372626;19;20014;-57
2023/08/24 10:40:32;;;;;;;0.10;0.10;;;;;;;27.34;39.43;100821.16;7371403;19;20434;-56
2023/08/24 10:43:02;;;;;;;0.05;0.05;;;;;;;27.47;40.14;100810.97;7371959;19;20007;-57
2023/08/24 10:45:57;;;;;;;0.10;0.10;;;;;;;27.86;42.93;100819.88;7362380;19;20022;-57
2023/08/24 10:48:24;;;;;;;0.00;0.00;;;;;;;27.96;37.75;100803.75;7379076;19;20019;-55
2023/08/24 10:51:16;;;;;;;0.08;0.08;;;;;;;28.32;42.05;100812.81;7379224;19;20018;-58
2023/08/24 10:53:44;;;;;;;0.00;0.00;;;;;;;28.39;37.95;100807.78;7379311;19;20006;-58
2023/08/24 10:56:15;;;;;;;0.00;0.00;;;;;;;28.42;38.40;100802.94;7370739;19;20011;-56
2023/08/24 10:58:42;;;;;;;0.10;0.10;;;;;;;28.30;36.21;100804.09;7371491;19;20024;-58
2023/08/24 11:01:15;;;;;;;0.10;0.10;;;;;;;28.26;38.66;100797.31;7371570;19;20014;-56
2023/08/24 11:03:42;;;;;;;0.00;0.00;;;;;;;28.09;37.22;100790.88;7372887;19;20014;-57
2023/08/24 11:06:25;;;;;;;0.10;0.10;;;;;;;28.31;40.21;100796.88;7375071;19;20817;-58
2023/08/24 11:09:15;;;;;;;0.10;0.10;;;;;;;28.48;40.42;100800.63;7365953;19;20412;-56
2023/08/24 11:11:41;;;;;;;0.00;0.00;;;;;;;28.47;37.55;100791.75;7366935;19;20086;-57
2023/08/24 11:14:29;;;;;;;0.10;0.10;;;;;;;28.74;39.73;100779.28;7368438;19;20109;-57
2023/08/24 11:16:59;;;;;;;0.10;0.10;;;;;;;28.89;36.79;100777.78;7370095;19;20070;-57
2023/08/24 11:19:24;;;;;;;0.10;0.10;;;;;;;29.06;36.42;100785.06;7367535;19;20014;-57
2023/08/24 11:21:51;;;;;;;0.10;0.10;;;;;;;29.35;36.07;100773.22;7365677;19;20014;-58
2023/08/24 11:24:17;;;;;;;0.10;0.10;;;;;;;29.62;35.68;100769.63;7369198;19;20034;-58